sensor_id;sensor_type;location;lat;lon;timestamp;P1;durP1;ratioP1;P2;durP2;ratioP2
25045;SDS011;13044;49.304;12.840;2022-09-14T00:01:27;5.90;;;4.10;;
25045;SDS011;13044;49.304;12.840;2022-09-14T00:04:06;5.20;;;3.40;;
25045;SDS011;13044;49.304;12.840;2022-09-14T00:06:36;8.07;;;4.05;;
25045;SDS011;13044;49.304;12.840;2022-09-14T00:09:04;4.78;;;3.78;;
25045;SDS011;13044;49.304;12.840;2022-09-14T00:11:32;7.03;;;4.28;;
25045;SDS011;13044;49.304;12.840;2022-09-14T00:14:01;4.57;;;3.83;;
25045;SDS011;13044;49.304;12.840;2022-09-14T00:16:33;6.55;;;3.85;;
25045;SDS011;13044;49.304;12.840;2022-09-14T00:19:05;7.28;;;4.20;;
25045;SDS011;13044;49.304;12.840;2022-09-14T00:21:40;7.55;;;4.35;;
25045;SDS011;13044;49.304;12.840;2022-09-14T00:24:08;5.25;;;4.30;;
25045;SDS011;13044;49.304;12.840;2022-09-14T00:26:36;7.57;;;4.10;;
25045;SDS011;13044;49.304;12.840;2022-09-14T00:29:03;12.85;;;4.05;;
25045;SDS011;13044;49.304;12.840;2022-09-14T00:31:32;10.00;;;5.80;;
25045;SDS011;13044;49.304;12.840;2022-09-14T00:34:01;7.95;;;4.80;;
25045;SDS011;13044;49.304;12.840;2022-09-14T00:36:30;7.43;;;4.85;;
25045;SDS011;13044;49.304;12.840;2022-09-14T00:38:58;8.05;;;5.70;;
25045;SDS011;13044;49.304;12.840;2022-09-14T00:41:27;7.90;;;4.93;;
25045;SDS011;13044;49.304;12.840;2022-09-14T00:46:39;10.13;;;4.72;;
25045;SDS011;13044;49.304;12.840;2022-09-14T00:49:13;5.97;;;4.20;;
25045;SDS011;13044;49.304;12.840;2022-09-14T00:51:50;11.68;;;4.47;;
25045;SDS011;13044;49.304;12.840;2022-09-14T00:54:29;9.52;;;4.13;;
25045;SDS011;13044;49.304;12.840;2022-09-14T00:56:56;8.20;;;3.85;;
25045;SDS011;13044;49.304;12.840;2022-09-14T00:59:28;7.45;;;3.75;;
25045;SDS011;13044;49.304;12.840;2022-09-14T01:02:00;8.77;;;3.23;;
25045;SDS011;13044;49.304;12.840;2022-09-14T01:04:27;12.30;;;4.47;;
25045;SDS011;13044;49.304;12.840;2022-09-14T01:07:11;13.13;;;4.60;;
25045;SDS011;13044;49.304;12.840;2022-09-14T01:12:56;6.63;;;4.30;;
25045;SDS011;13044;49.304;12.840;2022-09-14T01:21:10;6.78;;;4.07;;
25045;SDS011;13044;49.304;12.840;2022-09-14T01:29:47;9.40;;;4.40;;
25045;SDS011;13044;49.304;12.840;2022-09-14T01:32:47;7.68;;;4.07;;
25045;SDS011;13044;49.304;12.840;2022-09-14T01:35:36;4.72;;;3.80;;
25045;SDS011;13044;49.304;12.840;2022-09-14T01:40:50;6.93;;;4.45;;
25045;SDS011;13044;49.304;12.840;2022-09-14T01:43:25;4.80;;;3.95;;
25045;SDS011;13044;49.304;12.840;2022-09-14T01:48:49;8.05;;;4.78;;
25045;SDS011;13044;49.304;12.840;2022-09-14T01:51:30;9.40;;;4.25;;
25045;SDS011;13044;49.304;12.840;2022-09-14T01:54:23;13.05;;;4.95;;
25045;SDS011;13044;49.304;12.840;2022-09-14T01:57:38;7.82;;;4.72;;
25045;SDS011;13044;49.304;12.840;2022-09-14T02:00:09;9.32;;;5.93;;
25045;SDS011;13044;49.304;12.840;2022-09-14T02:02:45;11.10;;;5.47;;
25045;SDS011;13044;49.304;12.840;2022-09-14T02:05:33;7.47;;;4.78;;
25045;SDS011;13044;49.304;12.840;2022-09-14T02:08:12;6.55;;;4.45;;
25045;SDS011;13044;49.304;12.840;2022-09-14T02:10:39;7.53;;;4.72;;
25045;SDS011;13044;49.304;12.840;2022-09-14T02:13:06;8.20;;;4.78;;
25045;SDS011;13044;49.304;12.840;2022-09-14T02:15:34;6.35;;;4.35;;
25045;SDS011;13044;49.304;12.840;2022-09-14T02:18:02;6.30;;;4.63;;
25045;SDS011;13044;49.304;12.840;2022-09-14T02:23:02;6.30;;;4.55;;
25045;SDS011;13044;49.304;12.840;2022-09-14T02:25:30;7.43;;;4.30;;
25045;SDS011;13044;49.304;12.840;2022-09-14T02:27:58;10.07;;;4.35;;
25045;SDS011;13044;49.304;12.840;2022-09-14T02:30:24;7.70;;;4.55;;
25045;SDS011;13044;49.304;12.840;2022-09-14T02:35:44;5.97;;;4.20;;
25045;SDS011;13044;49.304;12.840;2022-09-14T02:38:32;5.50;;;4.63;;
25045;SDS011;13044;49.304;12.840;2022-09-14T02:41:09;5.40;;;4.10;;
25045;SDS011;13044;49.304;12.840;2022-09-14T02:44:11;7.95;;;4.82;;
25045;SDS011;13044;49.304;12.840;2022-09-14T02:47:03;7.28;;;4.65;;
25045;SDS011;13044;49.304;12.840;2022-09-14T02:55:51;6.72;;;4.47;;
25045;SDS011;13044;49.304;12.840;2022-09-14T02:58:34;9.25;;;4.50;;
25045;SDS011;13044;49.304;12.840;2022-09-14T03:01:07;8.40;;;3.88;;
25045;SDS011;13044;49.304;12.840;2022-09-14T03:03:36;9.02;;;4.53;;
25045;SDS011;13044;49.304;12.840;2022-09-14T03:06:03;5.07;;;4.40;;
25045;SDS011;13044;49.304;12.840;2022-09-14T03:08:31;6.38;;;3.70;;
25045;SDS011;13044;49.304;12.840;2022-09-14T03:10:58;8.70;;;3.85;;
25045;SDS011;13044;49.304;12.840;2022-09-14T03:13:25;6.15;;;4.00;;
25045;SDS011;13044;49.304;12.840;2022-09-14T03:15:52;8.90;;;4.35;;
25045;SDS011;13044;49.304;12.840;2022-09-14T03:18:19;6.88;;;4.28;;
25045;SDS011;13044;49.304;12.840;2022-09-14T03:20:46;9.02;;;5.07;;
25045;SDS011;13044;49.304;12.840;2022-09-14T03:23:13;9.27;;;4.82;;
25045;SDS011;13044;49.304;12.840;2022-09-14T03:25:41;11.15;;;4.43;;
25045;SDS011;13044;49.304;12.840;2022-09-14T03:28:10;7.50;;;4.68;;
25045;SDS011;13044;49.304;12.840;2022-09-14T03:30:37;6.68;;;4.28;;
25045;SDS011;13044;49.304;12.840;2022-09-14T03:33:04;8.23;;;4.32;;
25045;SDS011;13044;49.304;12.840;2022-09-14T03:35:31;7.13;;;4.22;;
25045;SDS011;13044;49.304;12.840;2022-09-14T03:37:58;8.57;;;4.70;;
25045;SDS011;13044;49.304;12.840;2022-09-14T03:40:25;5.43;;;4.18;;
25045;SDS011;13044;49.304;12.840;2022-09-14T03:42:53;7.05;;;4.70;;
25045;SDS011;13044;49.304;12.840;2022-09-14T03:45:20;12.25;;;5.00;;
25045;SDS011;13044;49.304;12.840;2022-09-14T03:47:47;12.88;;;4.85;;
25045;SDS011;13044;49.304;12.840;2022-09-14T03:50:15;10.30;;;4.60;;
25045;SDS011;13044;49.304;12.840;2022-09-14T03:52:43;6.43;;;4.43;;
25045;SDS011;13044;49.304;12.840;2022-09-14T03:55:10;6.20;;;4.82;;
25045;SDS011;13044;49.304;12.840;2022-09-14T03:57:37;6.00;;;4.43;;
25045;SDS011;13044;49.304;12.840;2022-09-14T04:00:04;8.57;;;4.85;;
25045;SDS011;13044;49.304;12.840;2022-09-14T04:02:32;15.20;;;4.63;;
25045;SDS011;13044;49.304;12.840;2022-09-14T04:04:59;9.20;;;4.88;;
25045;SDS011;13044;49.304;12.840;2022-09-14T04:07:26;11.38;;;4.72;;
25045;SDS011;13044;49.304;12.840;2022-09-14T04:09:53;5.82;;;4.25;;
25045;SDS011;13044;49.304;12.840;2022-09-14T04:12:21;7.95;;;4.93;;
25045;SDS011;13044;49.304;12.840;2022-09-14T04:14:48;6.90;;;4.82;;
25045;SDS011;13044;49.304;12.840;2022-09-14T04:17:14;9.07;;;4.90;;
25045;SDS011;13044;49.304;12.840;2022-09-14T04:19:42;10.02;;;4.65;;
25045;SDS011;13044;49.304;12.840;2022-09-14T04:22:09;7.15;;;4.43;;
25045;SDS011;13044;49.304;12.840;2022-09-14T04:24:36;13.15;;;4.53;;
25045;SDS011;13044;49.304;12.840;2022-09-14T04:27:03;5.63;;;4.50;;
25045;SDS011;13044;49.304;12.840;2022-09-14T04:29:30;9.65;;;4.15;;
25045;SDS011;13044;49.304;12.840;2022-09-14T04:31:56;6.25;;;4.25;;
25045;SDS011;13044;49.304;12.840;2022-09-14T04:34:23;8.30;;;4.60;;
25045;SDS011;13044;49.304;12.840;2022-09-14T04:36:50;5.35;;;3.80;;
25045;SDS011;13044;49.304;12.840;2022-09-14T04:39:17;5.82;;;3.80;;
25045;SDS011;13044;49.304;12.840;2022-09-14T04:41:44;11.90;;;4.40;;
25045;SDS011;13044;49.304;12.840;2022-09-14T04:44:11;8.35;;;4.03;;
25045;SDS011;13044;49.304;12.840;2022-09-14T04:46:38;7.70;;;3.95;;
25045;SDS011;13044;49.304;12.840;2022-09-14T04:49:11;6.28;;;4.28;;
25045;SDS011;13044;49.304;12.840;2022-09-14T04:51:43;8.43;;;5.13;;
25045;SDS011;13044;49.304;12.840;2022-09-14T04:54:12;6.60;;;5.10;;
25045;SDS011;13044;49.304;12.840;2022-09-14T04:56:41;7.93;;;5.45;;
25045;SDS011;13044;49.304;12.840;2022-09-14T04:59:09;15.15;;;5.82;;
25045;SDS011;13044;49.304;12.840;2022-09-14T05:01:38;9.43;;;5.10;;
25045;SDS011;13044;49.304;12.840;2022-09-14T05:04:07;11.38;;;6.07;;
25045;SDS011;13044;49.304;12.840;2022-09-14T05:06:36;17.40;;;5.97;;
25045;SDS011;13044;49.304;12.840;2022-09-14T05:09:06;12.60;;;6.35;;
25045;SDS011;13044;49.304;12.840;2022-09-14T05:11:40;11.23;;;6.00;;
25045;SDS011;13044;49.304;12.840;2022-09-14T05:14:08;8.32;;;5.63;;
25045;SDS011;13044;49.304;12.840;2022-09-14T05:16:38;11.20;;;6.32;;
25045;SDS011;13044;49.304;12.840;2022-09-14T05:19:07;14.57;;;7.20;;
25045;SDS011;13044;49.304;12.840;2022-09-14T05:21:38;13.48;;;7.65;;
25045;SDS011;13044;49.304;12.840;2022-09-14T05:24:08;21.90;;;7.68;;
25045;SDS011;13044;49.304;12.840;2022-09-14T05:26:46;10.52;;;6.47;;
25045;SDS011;13044;49.304;12.840;2022-09-14T05:29:14;11.18;;;6.60;;
25045;SDS011;13044;49.304;12.840;2022-09-14T05:31:43;10.07;;;6.30;;
25045;SDS011;13044;49.304;12.840;2022-09-14T05:34:11;12.68;;;6.40;;
25045;SDS011;13044;49.304;12.840;2022-09-14T05:36:38;11.30;;;6.00;;
25045;SDS011;13044;49.304;12.840;2022-09-14T05:39:05;15.27;;;6.50;;
25045;SDS011;13044;49.304;12.840;2022-09-14T05:41:33;11.25;;;6.38;;
25045;SDS011;13044;49.304;12.840;2022-09-14T05:44:00;13.10;;;6.68;;
25045;SDS011;13044;49.304;12.840;2022-09-14T05:46:27;24.17;;;7.10;;
25045;SDS011;13044;49.304;12.840;2022-09-14T05:48:54;12.00;;;7.32;;
25045;SDS011;13044;49.304;12.840;2022-09-14T05:51:21;9.32;;;6.47;;
25045;SDS011;13044;49.304;12.840;2022-09-14T05:53:51;14.40;;;7.60;;
25045;SDS011;13044;49.304;12.840;2022-09-14T05:56:21;15.02;;;7.35;;
25045;SDS011;13044;49.304;12.840;2022-09-14T05:58:49;16.60;;;7.72;;
25045;SDS011;13044;49.304;12.840;2022-09-14T06:01:21;17.45;;;7.00;;
25045;SDS011;13044;49.304;12.840;2022-09-14T06:03:54;16.90;;;6.55;;
25045;SDS011;13044;49.304;12.840;2022-09-14T06:06:23;11.98;;;6.32;;
25045;SDS011;13044;49.304;12.840;2022-09-14T06:08:50;13.35;;;6.50;;
25045;SDS011;13044;49.304;12.840;2022-09-14T06:11:20;15.23;;;7.28;;
25045;SDS011;13044;49.304;12.840;2022-09-14T06:13:50;12.55;;;6.85;;
25045;SDS011;13044;49.304;12.840;2022-09-14T06:16:18;15.85;;;7.35;;
25045;SDS011;13044;49.304;12.840;2022-09-14T06:18:47;19.20;;;7.18;;
25045;SDS011;13044;49.304;12.840;2022-09-14T06:21:15;8.10;;;6.05;;
25045;SDS011;13044;49.304;12.840;2022-09-14T06:23:45;8.80;;;6.47;;
25045;SDS011;13044;49.304;12.840;2022-09-14T06:26:14;16.42;;;7.65;;
25045;SDS011;13044;49.304;12.840;2022-09-14T06:28:41;9.00;;;6.72;;
25045;SDS011;13044;49.304;12.840;2022-09-14T06:31:10;11.30;;;6.82;;
25045;SDS011;13044;49.304;12.840;2022-09-14T06:33:45;10.98;;;6.97;;
25045;SDS011;13044;49.304;12.840;2022-09-14T06:36:19;10.80;;;6.88;;
25045;SDS011;13044;49.304;12.840;2022-09-14T06:38:48;13.98;;;7.43;;
25045;SDS011;13044;49.304;12.840;2022-09-14T06:41:17;12.98;;;6.85;;
25045;SDS011;13044;49.304;12.840;2022-09-14T06:43:47;13.57;;;7.32;;
25045;SDS011;13044;49.304;12.840;2022-09-14T06:46:21;13.90;;;7.57;;
25045;SDS011;13044;49.304;12.840;2022-09-14T06:48:56;12.18;;;7.30;;
25045;SDS011;13044;49.304;12.840;2022-09-14T06:51:48;11.30;;;7.45;;
25045;SDS011;13044;49.304;12.840;2022-09-14T06:54:16;10.70;;;7.40;;
25045;SDS011;13044;49.304;12.840;2022-09-14T06:56:44;12.80;;;7.50;;
25045;SDS011;13044;49.304;12.840;2022-09-14T06:59:12;16.38;;;8.02;;
25045;SDS011;13044;49.304;12.840;2022-09-14T07:01:41;16.42;;;7.78;;
25045;SDS011;13044;49.304;12.840;2022-09-14T07:04:10;11.63;;;8.00;;
25045;SDS011;13044;49.304;12.840;2022-09-14T07:06:41;13.73;;;7.60;;
25045;SDS011;13044;49.304;12.840;2022-09-14T07:11:38;9.45;;;6.80;;
25045;SDS011;13044;49.304;12.840;2022-09-14T07:14:06;9.30;;;7.25;;
25045;SDS011;13044;49.304;12.840;2022-09-14T07:16:34;10.93;;;7.40;;
25045;SDS011;13044;49.304;12.840;2022-09-14T07:19:05;11.25;;;6.93;;
25045;SDS011;13044;49.304;12.840;2022-09-14T07:21:38;8.90;;;6.60;;
25045;SDS011;13044;49.304;12.840;2022-09-14T07:24:06;13.88;;;7.45;;
25045;SDS011;13044;49.304;12.840;2022-09-14T07:26:35;11.30;;;6.68;;
25045;SDS011;13044;49.304;12.840;2022-09-14T07:29:12;7.10;;;6.40;;
25045;SDS011;13044;49.304;12.840;2022-09-14T07:31:44;10.45;;;6.55;;
25045;SDS011;13044;49.304;12.840;2022-09-14T07:34:16;7.53;;;5.22;;
25045;SDS011;13044;49.304;12.840;2022-09-14T07:36:44;7.32;;;5.70;;
25045;SDS011;13044;49.304;12.840;2022-09-14T07:39:12;8.00;;;5.00;;
25045;SDS011;13044;49.304;12.840;2022-09-14T07:41:43;9.38;;;5.75;;
25045;SDS011;13044;49.304;12.840;2022-09-14T07:44:15;7.43;;;5.07;;
25045;SDS011;13044;49.304;12.840;2022-09-14T07:46:43;7.18;;;5.13;;
25045;SDS011;13044;49.304;12.840;2022-09-14T07:49:11;5.55;;;4.43;;
25045;SDS011;13044;49.304;12.840;2022-09-14T07:51:39;7.25;;;4.85;;
25045;SDS011;13044;49.304;12.840;2022-09-14T07:54:07;8.13;;;4.65;;
25045;SDS011;13044;49.304;12.840;2022-09-14T07:56:38;7.95;;;4.80;;
25045;SDS011;13044;49.304;12.840;2022-09-14T07:59:05;7.43;;;5.07;;
25045;SDS011;13044;49.304;12.840;2022-09-14T08:01:52;7.55;;;5.25;;
25045;SDS011;13044;49.304;12.840;2022-09-14T08:04:19;6.82;;;5.07;;
25045;SDS011;13044;49.304;12.840;2022-09-14T08:06:46;6.60;;;4.47;;
25045;SDS011;13044;49.304;12.840;2022-09-14T08:09:14;7.78;;;4.68;;
25045;SDS011;13044;49.304;12.840;2022-09-14T08:11:41;5.75;;;4.28;;
25045;SDS011;13044;49.304;12.840;2022-09-14T08:14:08;9.90;;;4.75;;
25045;SDS011;13044;49.304;12.840;2022-09-14T08:16:38;8.20;;;3.80;;
25045;SDS011;13044;49.304;12.840;2022-09-14T08:19:09;6.63;;;4.47;;
25045;SDS011;13044;49.304;12.840;2022-09-14T08:21:42;9.65;;;5.25;;
25045;SDS011;13044;49.304;12.840;2022-09-14T08:24:15;8.65;;;4.70;;
25045;SDS011;13044;49.304;12.840;2022-09-14T08:26:46;10.35;;;5.38;;
25045;SDS011;13044;49.304;12.840;2022-09-14T08:29:14;10.75;;;5.78;;
25045;SDS011;13044;49.304;12.840;2022-09-14T08:31:42;9.02;;;4.25;;
25045;SDS011;13044;49.304;12.840;2022-09-14T08:34:11;5.68;;;4.15;;
25045;SDS011;13044;49.304;12.840;2022-09-14T08:36:40;8.60;;;4.30;;
25045;SDS011;13044;49.304;12.840;2022-09-14T08:39:09;5.80;;;4.00;;
25045;SDS011;13044;49.304;12.840;2022-09-14T08:47:10;7.82;;;3.88;;
25045;SDS011;13044;49.304;12.840;2022-09-14T08:52:39;4.85;;;3.67;;
25045;SDS011;13044;49.304;12.840;2022-09-14T09:00:53;6.22;;;4.47;;
25045;SDS011;13044;49.304;12.840;2022-09-14T09:07:50;7.63;;;4.25;;
25045;SDS011;13044;49.304;12.840;2022-09-14T09:10:17;7.57;;;4.18;;
25045;SDS011;13044;49.304;12.840;2022-09-14T09:12:47;9.85;;;3.95;;
25045;SDS011;13044;49.304;12.840;2022-09-14T09:15:20;6.15;;;4.45;;
25045;SDS011;13044;49.304;12.840;2022-09-14T09:17:58;7.38;;;4.65;;
25045;SDS011;13044;49.304;12.840;2022-09-14T09:20:32;5.70;;;4.38;;
25045;SDS011;13044;49.304;12.840;2022-09-14T09:29:00;6.80;;;4.57;;
25045;SDS011;13044;49.304;12.840;2022-09-14T09:31:32;5.53;;;4.00;;
25045;SDS011;13044;49.304;12.840;2022-09-14T09:34:08;6.60;;;4.30;;
25045;SDS011;13044;49.304;12.840;2022-09-14T09:39:11;6.38;;;4.07;;
25045;SDS011;13044;49.304;12.840;2022-09-14T09:44:22;4.82;;;3.80;;
25045;SDS011;13044;49.304;12.840;2022-09-14T09:46:49;6.53;;;3.90;;
25045;SDS011;13044;49.304;12.840;2022-09-14T09:49:30;7.38;;;4.10;;
25045;SDS011;13044;49.304;12.840;2022-09-14T09:52:08;7.05;;;3.35;;
25045;SDS011;13044;49.304;12.840;2022-09-14T09:54:41;9.25;;;3.92;;
25045;SDS011;13044;49.304;12.840;2022-09-14T09:57:50;5.70;;;3.55;;
25045;SDS011;13044;49.304;12.840;2022-09-14T10:02:50;9.85;;;4.15;;
25045;SDS011;13044;49.304;12.840;2022-09-14T10:05:22;6.78;;;4.30;;
25045;SDS011;13044;49.304;12.840;2022-09-14T10:07:58;6.30;;;4.35;;
25045;SDS011;13044;49.304;12.840;2022-09-14T10:13:00;8.50;;;4.85;;
25045;SDS011;13044;49.304;12.840;2022-09-14T10:15:31;7.82;;;4.80;;
25045;SDS011;13044;49.304;12.840;2022-09-14T10:20:35;9.75;;;5.82;;
25045;SDS011;13044;49.304;12.840;2022-09-14T10:23:25;7.13;;;5.30;;
25045;SDS011;13044;49.304;12.840;2022-09-14T10:28:41;9.40;;;6.05;;
25045;SDS011;13044;49.304;12.840;2022-09-14T10:33:40;8.85;;;5.75;;
25045;SDS011;13044;49.304;12.840;2022-09-14T10:39:05;10.05;;;7.30;;
25045;SDS011;13044;49.304;12.840;2022-09-14T10:41:58;9.85;;;7.05;;
25045;SDS011;13044;49.304;12.840;2022-09-14T10:57:21;14.95;;;9.40;;
25045;SDS011;13044;49.304;12.840;2022-09-14T11:00:04;11.63;;;8.57;;
25045;SDS011;13044;49.304;12.840;2022-09-14T11:03:11;12.73;;;9.05;;
25045;SDS011;13044;49.304;12.840;2022-09-14T11:05:46;14.27;;;10.65;;
25045;SDS011;13044;49.304;12.840;2022-09-14T11:08:56;12.90;;;9.90;;
25045;SDS011;13044;49.304;12.840;2022-09-14T11:14:42;15.90;;;11.50;;
25045;SDS011;13044;49.304;12.840;2022-09-14T11:34:47;11.30;;;9.90;;
25045;SDS011;13044;49.304;12.840;2022-09-14T11:43:04;15.43;;;11.13;;
25045;SDS011;13044;49.304;12.840;2022-09-14T11:45:41;16.60;;;12.40;;
25045;SDS011;13044;49.304;12.840;2022-09-14T11:48:27;18.08;;;11.85;;
25045;SDS011;13044;49.304;12.840;2022-09-14T11:51:19;14.77;;;11.57;;
25045;SDS011;13044;49.304;12.840;2022-09-14T11:53:53;14.85;;;12.07;;
25045;SDS011;13044;49.304;12.840;2022-09-14T11:58:53;13.02;;;11.32;;
25045;SDS011;13044;49.304;12.840;2022-09-14T12:11:53;18.77;;;12.25;;
25045;SDS011;13044;49.304;12.840;2022-09-14T12:17:12;16.70;;;12.75;;
25045;SDS011;13044;49.304;12.840;2022-09-14T12:23:03;14.63;;;11.07;;
25045;SDS011;13044;49.304;12.840;2022-09-14T12:36:08;13.15;;;9.40;;
25045;SDS011;13044;49.304;12.840;2022-09-14T12:51:32;9.32;;;8.32;;
25045;SDS011;13044;49.304;12.840;2022-09-14T12:54:30;14.30;;;8.77;;
25045;SDS011;13044;49.304;12.840;2022-09-14T13:05:16;11.75;;;8.05;;
25045;SDS011;13044;49.304;12.840;2022-09-14T13:07:48;9.60;;;7.90;;
25045;SDS011;13044;49.304;12.840;2022-09-14T13:10:18;10.80;;;9.18;;
25045;SDS011;13044;49.304;12.840;2022-09-14T13:13:02;11.05;;;7.72;;
25045;SDS011;13044;49.304;12.840;2022-09-14T13:15:48;10.07;;;7.13;;
25045;SDS011;13044;49.304;12.840;2022-09-14T13:18:32;10.90;;;7.25;;
25045;SDS011;13044;49.304;12.840;2022-09-14T13:21:03;8.05;;;7.20;;
25045;SDS011;13044;49.304;12.840;2022-09-14T13:23:47;6.30;;;5.70;;
25045;SDS011;13044;49.304;12.840;2022-09-14T13:26:18;6.40;;;5.78;;
25045;SDS011;13044;49.304;12.840;2022-09-14T13:28:50;8.15;;;5.18;;
25045;SDS011;13044;49.304;12.840;2022-09-14T13:31:36;7.47;;;5.35;;
25045;SDS011;13044;49.304;12.840;2022-09-14T13:34:04;8.68;;;5.03;;
25045;SDS011;13044;49.304;12.840;2022-09-14T13:36:33;7.88;;;5.63;;
25045;SDS011;13044;49.304;12.840;2022-09-14T13:39:07;7.28;;;5.15;;
25045;SDS011;13044;49.304;12.840;2022-09-14T13:41:49;5.80;;;4.82;;
25045;SDS011;13044;49.304;12.840;2022-09-14T13:44:17;5.72;;;5.15;;
25045;SDS011;13044;49.304;12.840;2022-09-14T13:47:00;7.32;;;5.03;;
25045;SDS011;13044;49.304;12.840;2022-09-14T13:49:30;6.70;;;5.40;;
25045;SDS011;13044;49.304;12.840;2022-09-14T14:00:48;9.02;;;4.57;;
25045;SDS011;13044;49.304;12.840;2022-09-14T14:05:54;5.40;;;4.40;;
25045;SDS011;13044;49.304;12.840;2022-09-14T14:08:25;6.00;;;4.60;;
25045;SDS011;13044;49.304;12.840;2022-09-14T14:11:03;9.73;;;4.60;;
25045;SDS011;13044;49.304;12.840;2022-09-14T14:13:33;7.28;;;4.85;;
25045;SDS011;13044;49.304;12.840;2022-09-14T14:16:13;6.32;;;4.70;;
25045;SDS011;13044;49.304;12.840;2022-09-14T14:18:52;6.72;;;4.60;;
25045;SDS011;13044;49.304;12.840;2022-09-14T14:21:25;8.25;;;5.28;;
25045;SDS011;13044;49.304;12.840;2022-09-14T14:26:54;9.18;;;5.25;;
25045;SDS011;13044;49.304;12.840;2022-09-14T14:29:22;9.10;;;4.90;;
25045;SDS011;13044;49.304;12.840;2022-09-14T14:31:52;6.45;;;4.25;;
25045;SDS011;13044;49.304;12.840;2022-09-14T14:34:27;7.78;;;4.47;;
25045;SDS011;13044;49.304;12.840;2022-09-14T14:36:55;8.07;;;4.32;;
25045;SDS011;13044;49.304;12.840;2022-09-14T14:39:22;5.18;;;4.30;;
25045;SDS011;13044;49.304;12.840;2022-09-14T14:41:50;8.50;;;4.25;;
25045;SDS011;13044;49.304;12.840;2022-09-14T14:44:21;7.13;;;4.43;;
25045;SDS011;13044;49.304;12.840;2022-09-14T14:46:50;8.02;;;4.70;;
25045;SDS011;13044;49.304;12.840;2022-09-14T14:49:17;5.00;;;4.18;;
25045;SDS011;13044;49.304;12.840;2022-09-14T14:51:45;8.77;;;4.45;;
25045;SDS011;13044;49.304;12.840;2022-09-14T14:54:13;4.85;;;4.20;;
25045;SDS011;13044;49.304;12.840;2022-09-14T14:56:44;6.47;;;4.78;;
25045;SDS011;13044;49.304;12.840;2022-09-14T15:01:51;10.07;;;4.80;;
25045;SDS011;13044;49.304;12.840;2022-09-14T15:04:19;4.75;;;4.22;;
25045;SDS011;13044;49.304;12.840;2022-09-14T15:06:46;8.73;;;4.90;;
25045;SDS011;13044;49.304;12.840;2022-09-14T15:09:17;7.95;;;4.63;;
25045;SDS011;13044;49.304;12.840;2022-09-14T15:11:52;7.55;;;4.32;;
25045;SDS011;13044;49.304;12.840;2022-09-14T15:14:20;5.57;;;4.30;;
25045;SDS011;13044;49.304;12.840;2022-09-14T15:16:52;8.30;;;4.20;;
25045;SDS011;13044;49.304;12.840;2022-09-14T15:19:25;7.97;;;4.90;;
25045;SDS011;13044;49.304;12.840;2022-09-14T15:21:52;6.68;;;4.38;;
25045;SDS011;13044;49.304;12.840;2022-09-14T15:24:26;4.93;;;4.10;;
25045;SDS011;13044;49.304;12.840;2022-09-14T15:26:53;8.43;;;4.68;;
25045;SDS011;13044;49.304;12.840;2022-09-14T15:29:19;9.63;;;4.95;;
25045;SDS011;13044;49.304;12.840;2022-09-14T15:31:46;5.35;;;4.85;;
25045;SDS011;13044;49.304;12.840;2022-09-14T15:34:13;7.70;;;5.15;;
25045;SDS011;13044;49.304;12.840;2022-09-14T15:39:19;10.82;;;5.13;;
25045;SDS011;13044;49.304;12.840;2022-09-14T15:41:50;11.70;;;5.03;;
25045;SDS011;13044;49.304;12.840;2022-09-14T15:44:17;8.60;;;4.80;;
25045;SDS011;13044;49.304;12.840;2022-09-14T15:46:45;6.93;;;4.30;;
25045;SDS011;13044;49.304;12.840;2022-09-14T15:49:14;5.38;;;4.05;;
25045;SDS011;13044;49.304;12.840;2022-09-14T15:51:51;6.80;;;4.32;;
25045;SDS011;13044;49.304;12.840;2022-09-14T15:54:20;4.60;;;3.80;;
25045;SDS011;13044;49.304;12.840;2022-09-14T15:56:52;7.47;;;5.22;;
25045;SDS011;13044;49.304;12.840;2022-09-14T15:59:21;6.75;;;4.68;;
25045;SDS011;13044;49.304;12.840;2022-09-14T16:01:48;7.13;;;4.00;;
25045;SDS011;13044;49.304;12.840;2022-09-14T16:04:15;5.97;;;4.93;;
25045;SDS011;13044;49.304;12.840;2022-09-14T16:06:43;6.25;;;5.00;;
25045;SDS011;13044;49.304;12.840;2022-09-14T16:09:11;7.82;;;4.30;;
25045;SDS011;13044;49.304;12.840;2022-09-14T16:11:40;9.98;;;7.35;;
25045;SDS011;13044;49.304;12.840;2022-09-14T16:14:08;28.52;;;17.92;;
25045;SDS011;13044;49.304;12.840;2022-09-14T16:16:36;12.23;;;9.35;;
25045;SDS011;13044;49.304;12.840;2022-09-14T16:19:08;6.75;;;5.90;;
25045;SDS011;13044;49.304;12.840;2022-09-14T16:21:39;10.07;;;8.05;;
25045;SDS011;13044;49.304;12.840;2022-09-14T16:24:12;9.77;;;8.05;;
25045;SDS011;13044;49.304;12.840;2022-09-14T16:26:43;55.58;;;27.60;;
25045;SDS011;13044;49.304;12.840;2022-09-14T16:29:11;50.83;;;23.30;;
25045;SDS011;13044;49.304;12.840;2022-09-14T16:31:41;27.02;;;14.73;;
25045;SDS011;13044;49.304;12.840;2022-09-14T16:34:12;13.65;;;10.48;;
25045;SDS011;13044;49.304;12.840;2022-09-14T16:36:46;14.27;;;9.05;;
25045;SDS011;13044;49.304;12.840;2022-09-14T16:39:15;12.48;;;8.50;;
25045;SDS011;13044;49.304;12.840;2022-09-14T16:41:44;15.98;;;9.82;;
25045;SDS011;13044;49.304;12.840;2022-09-14T16:44:13;20.85;;;12.05;;
25045;SDS011;13044;49.304;12.840;2022-09-14T16:46:44;18.27;;;13.68;;
25045;SDS011;13044;49.304;12.840;2022-09-14T16:49:14;24.00;;;13.70;;
25045;SDS011;13044;49.304;12.840;2022-09-14T16:51:50;24.42;;;15.73;;
25045;SDS011;13044;49.304;12.840;2022-09-14T16:54:18;16.45;;;8.10;;
25045;SDS011;13044;49.304;12.840;2022-09-14T16:56:47;16.95;;;7.18;;
25045;SDS011;13044;49.304;12.840;2022-09-14T16:59:18;13.80;;;8.20;;
25045;SDS011;13044;49.304;12.840;2022-09-14T17:01:45;11.10;;;4.22;;
25045;SDS011;13044;49.304;12.840;2022-09-14T17:04:19;5.90;;;4.25;;
25045;SDS011;13044;49.304;12.840;2022-09-14T17:06:47;6.43;;;4.15;;
25045;SDS011;13044;49.304;12.840;2022-09-14T17:09:17;7.10;;;4.80;;
25045;SDS011;13044;49.304;12.840;2022-09-14T17:11:56;12.65;;;4.55;;
25045;SDS011;13044;49.304;12.840;2022-09-14T17:14:25;8.27;;;4.32;;
25045;SDS011;13044;49.304;12.840;2022-09-14T17:16:56;6.22;;;4.60;;
25045;SDS011;13044;49.304;12.840;2022-09-14T17:19:25;13.98;;;7.18;;
25045;SDS011;13044;49.304;12.840;2022-09-14T17:21:53;10.40;;;4.72;;
25045;SDS011;13044;49.304;12.840;2022-09-14T17:24:20;7.13;;;3.63;;
25045;SDS011;13044;49.304;12.840;2022-09-14T17:26:47;5.85;;;3.55;;
25045;SDS011;13044;49.304;12.840;2022-09-14T17:29:14;4.90;;;3.10;;
25045;SDS011;13044;49.304;12.840;2022-09-14T17:31:44;6.57;;;3.88;;
25045;SDS011;13044;49.304;12.840;2022-09-14T17:34:11;7.40;;;3.20;;
25045;SDS011;13044;49.304;12.840;2022-09-14T17:36:42;4.65;;;3.20;;
25045;SDS011;13044;49.304;12.840;2022-09-14T17:39:10;3.63;;;3.20;;
25045;SDS011;13044;49.304;12.840;2022-09-14T17:41:39;7.18;;;3.70;;
25045;SDS011;13044;49.304;12.840;2022-09-14T17:44:10;7.32;;;3.65;;
25045;SDS011;13044;49.304;12.840;2022-09-14T17:46:42;5.78;;;3.92;;
25045;SDS011;13044;49.304;12.840;2022-09-14T17:49:18;5.35;;;3.65;;
25045;SDS011;13044;49.304;12.840;2022-09-14T17:51:54;8.43;;;3.72;;
25045;SDS011;13044;49.304;12.840;2022-09-14T17:54:22;8.15;;;4.50;;
25045;SDS011;13044;49.304;12.840;2022-09-14T17:56:50;6.93;;;3.95;;
25045;SDS011;13044;49.304;12.840;2022-09-14T17:59:31;5.10;;;3.88;;
25045;SDS011;13044;49.304;12.840;2022-09-14T18:01:58;13.30;;;4.18;;
25045;SDS011;13044;49.304;12.840;2022-09-14T18:04:32;13.68;;;8.48;;
25045;SDS011;13044;49.304;12.840;2022-09-14T18:07:03;9.88;;;4.93;;